Aviation Digital Data Service (ADDS)

Output produced by METARs form (1530 UTC 06 May 2015)
found at http://aviationweather.gov/adds/metars/
 
KDAN 061128Z 0612/0712 21003KT P6SM SCT250 
     FM061700 22007KT P6SM BKN060 
     FM070000 00000KT P6SM SCT120